sensor_id;sensor_type;location;lat;lon;timestamp;P1;durP1;ratioP1;P2;durP2;ratioP2
18449;SDS011;9354;50.194;7.690;2023-12-07T00:00:47;18.47;;;8.03;;
18449;SDS011;9354;50.194;7.690;2023-12-07T00:03:15;16.93;;;8.03;;
18449;SDS011;9354;50.194;7.690;2023-12-07T00:05:43;18.40;;;7.83;;
18449;SDS011;9354;50.194;7.690;2023-12-07T00:08:11;15.00;;;7.33;;
18449;SDS011;9354;50.194;7.690;2023-12-07T00:10:38;19.57;;;8.27;;
18449;SDS011;9354;50.194;7.690;2023-12-07T00:13:06;16.27;;;7.80;;
18449;SDS011;9354;50.194;7.690;2023-12-07T00:15:33;14.00;;;7.67;;
18449;SDS011;9354;50.194;7.690;2023-12-07T00:18:00;22.70;;;8.43;;
18449;SDS011;9354;50.194;7.690;2023-12-07T00:20:28;19.47;;;7.97;;
18449;SDS011;9354;50.194;7.690;2023-12-07T00:22:57;20.03;;;8.10;;
18449;SDS011;9354;50.194;7.690;2023-12-07T00:25:24;17.53;;;7.77;;
18449;SDS011;9354;50.194;7.690;2023-12-07T00:27:52;17.63;;;7.57;;
18449;SDS011;9354;50.194;7.690;2023-12-07T00:30:19;16.63;;;7.70;;
18449;SDS011;9354;50.194;7.690;2023-12-07T00:32:47;23.43;;;8.77;;
18449;SDS011;9354;50.194;7.690;2023-12-07T00:35:14;19.33;;;7.93;;
18449;SDS011;9354;50.194;7.690;2023-12-07T00:37:43;19.57;;;8.10;;
18449;SDS011;9354;50.194;7.690;2023-12-07T00:40:12;16.10;;;7.90;;
18449;SDS011;9354;50.194;7.690;2023-12-07T00:42:39;17.77;;;7.67;;
18449;SDS011;9354;50.194;7.690;2023-12-07T00:45:07;14.87;;;6.97;;
18449;SDS011;9354;50.194;7.690;2023-12-07T00:47:35;20.07;;;7.93;;
18449;SDS011;9354;50.194;7.690;2023-12-07T00:50:02;14.47;;;7.80;;
18449;SDS011;9354;50.194;7.690;2023-12-07T00:52:30;15.70;;;6.53;;
18449;SDS011;9354;50.194;7.690;2023-12-07T00:54:58;21.77;;;7.73;;
18449;SDS011;9354;50.194;7.690;2023-12-07T00:57:27;19.20;;;8.10;;
18449;SDS011;9354;50.194;7.690;2023-12-07T00:59:54;15.13;;;7.23;;
18449;SDS011;9354;50.194;7.690;2023-12-07T01:02:21;18.37;;;7.90;;
18449;SDS011;9354;50.194;7.690;2023-12-07T01:04:49;20.27;;;8.47;;
18449;SDS011;9354;50.194;7.690;2023-12-07T01:07:16;16.43;;;7.80;;
18449;SDS011;9354;50.194;7.690;2023-12-07T01:09:43;20.07;;;7.67;;
18449;SDS011;9354;50.194;7.690;2023-12-07T01:12:11;20.57;;;8.20;;
18449;SDS011;9354;50.194;7.690;2023-12-07T01:14:40;16.77;;;7.37;;
18449;SDS011;9354;50.194;7.690;2023-12-07T01:17:08;20.37;;;8.23;;
18449;SDS011;9354;50.194;7.690;2023-12-07T01:19:35;19.50;;;8.67;;
18449;SDS011;9354;50.194;7.690;2023-12-07T01:22:02;16.27;;;8.07;;
18449;SDS011;9354;50.194;7.690;2023-12-07T01:24:30;20.23;;;7.63;;
18449;SDS011;9354;50.194;7.690;2023-12-07T01:26:57;17.70;;;7.43;;
18449;SDS011;9354;50.194;7.690;2023-12-07T01:29:25;19.53;;;8.03;;
18449;SDS011;9354;50.194;7.690;2023-12-07T01:31:53;18.07;;;8.27;;
18449;SDS011;9354;50.194;7.690;2023-12-07T01:34:21;21.17;;;8.10;;
18449;SDS011;9354;50.194;7.690;2023-12-07T01:36:48;19.13;;;8.37;;
18449;SDS011;9354;50.194;7.690;2023-12-07T01:39:16;16.57;;;8.13;;
18449;SDS011;9354;50.194;7.690;2023-12-07T01:41:43;16.40;;;7.90;;
18449;SDS011;9354;50.194;7.690;2023-12-07T01:44:10;19.70;;;8.30;;
18449;SDS011;9354;50.194;7.690;2023-12-07T01:46:38;17.43;;;8.37;;
18449;SDS011;9354;50.194;7.690;2023-12-07T01:49:06;19.07;;;8.40;;
18449;SDS011;9354;50.194;7.690;2023-12-07T01:51:34;16.23;;;7.20;;
18449;SDS011;9354;50.194;7.690;2023-12-07T01:54:02;19.27;;;8.60;;
18449;SDS011;9354;50.194;7.690;2023-12-07T01:56:29;29.00;;;9.40;;
18449;SDS011;9354;50.194;7.690;2023-12-07T01:58:57;18.23;;;7.90;;
18449;SDS011;9354;50.194;7.690;2023-12-07T02:01:25;21.53;;;8.33;;
18449;SDS011;9354;50.194;7.690;2023-12-07T02:03:52;17.90;;;7.90;;
18449;SDS011;9354;50.194;7.690;2023-12-07T02:06:21;14.80;;;7.23;;
18449;SDS011;9354;50.194;7.690;2023-12-07T02:08:49;17.20;;;8.97;;
18449;SDS011;9354;50.194;7.690;2023-12-07T02:11:16;21.23;;;7.43;;
18449;SDS011;9354;50.194;7.690;2023-12-07T02:13:44;18.20;;;7.67;;
18449;SDS011;9354;50.194;7.690;2023-12-07T02:16:15;18.33;;;7.70;;
18449;SDS011;9354;50.194;7.690;2023-12-07T02:18:50;17.63;;;7.53;;
18449;SDS011;9354;50.194;7.690;2023-12-07T02:21:24;14.50;;;7.20;;
18449;SDS011;9354;50.194;7.690;2023-12-07T02:23:57;16.80;;;7.27;;
18449;SDS011;9354;50.194;7.690;2023-12-07T02:26:31;16.67;;;8.03;;
18449;SDS011;9354;50.194;7.690;2023-12-07T02:28:59;17.53;;;7.57;;
18449;SDS011;9354;50.194;7.690;2023-12-07T02:31:26;18.27;;;8.30;;
18449;SDS011;9354;50.194;7.690;2023-12-07T02:33:54;20.90;;;8.60;;
18449;SDS011;9354;50.194;7.690;2023-12-07T02:36:22;20.07;;;8.53;;
18449;SDS011;9354;50.194;7.690;2023-12-07T02:38:53;21.57;;;8.63;;
18449;SDS011;9354;50.194;7.690;2023-12-07T02:41:26;19.03;;;8.50;;
18449;SDS011;9354;50.194;7.690;2023-12-07T02:43:56;20.37;;;8.87;;
18449;SDS011;9354;50.194;7.690;2023-12-07T02:46:24;15.97;;;8.43;;
18449;SDS011;9354;50.194;7.690;2023-12-07T02:48:51;20.60;;;8.77;;
18449;SDS011;9354;50.194;7.690;2023-12-07T02:51:19;21.57;;;8.77;;
18449;SDS011;9354;50.194;7.690;2023-12-07T02:53:46;21.83;;;9.23;;
18449;SDS011;9354;50.194;7.690;2023-12-07T02:56:14;21.40;;;8.40;;
18449;SDS011;9354;50.194;7.690;2023-12-07T02:58:41;16.37;;;7.63;;
18449;SDS011;9354;50.194;7.690;2023-12-07T03:01:10;15.20;;;7.93;;
18449;SDS011;9354;50.194;7.690;2023-12-07T03:03:37;18.27;;;8.37;;
18449;SDS011;9354;50.194;7.690;2023-12-07T03:06:06;25.60;;;9.73;;
18449;SDS011;9354;50.194;7.690;2023-12-07T03:08:34;22.33;;;9.73;;
18449;SDS011;9354;50.194;7.690;2023-12-07T03:11:01;20.93;;;9.57;;
18449;SDS011;9354;50.194;7.690;2023-12-07T03:13:28;18.33;;;9.07;;
18449;SDS011;9354;50.194;7.690;2023-12-07T03:15:56;23.90;;;10.33;;
18449;SDS011;9354;50.194;7.690;2023-12-07T03:18:25;23.63;;;10.57;;
18449;SDS011;9354;50.194;7.690;2023-12-07T03:20:52;22.07;;;10.30;;
18449;SDS011;9354;50.194;7.690;2023-12-07T03:23:20;23.50;;;9.47;;
18449;SDS011;9354;50.194;7.690;2023-12-07T03:25:47;24.23;;;11.27;;
18449;SDS011;9354;50.194;7.690;2023-12-07T03:28:15;24.83;;;10.77;;
18449;SDS011;9354;50.194;7.690;2023-12-07T03:30:42;22.27;;;10.13;;
18449;SDS011;9354;50.194;7.690;2023-12-07T03:33:09;22.83;;;10.33;;
18449;SDS011;9354;50.194;7.690;2023-12-07T03:35:38;27.07;;;11.83;;
18449;SDS011;9354;50.194;7.690;2023-12-07T03:38:06;27.97;;;11.03;;
18449;SDS011;9354;50.194;7.690;2023-12-07T03:40:33;26.90;;;11.83;;
18449;SDS011;9354;50.194;7.690;2023-12-07T03:43:00;23.40;;;10.43;;
18449;SDS011;9354;50.194;7.690;2023-12-07T03:45:29;24.77;;;10.40;;
18449;SDS011;9354;50.194;7.690;2023-12-07T03:47:57;23.03;;;10.13;;
18449;SDS011;9354;50.194;7.690;2023-12-07T03:50:24;22.47;;;9.87;;
18449;SDS011;9354;50.194;7.690;2023-12-07T03:52:53;24.17;;;10.37;;
18449;SDS011;9354;50.194;7.690;2023-12-07T03:55:20;25.63;;;10.90;;
18449;SDS011;9354;50.194;7.690;2023-12-07T03:57:48;28.27;;;11.03;;
18449;SDS011;9354;50.194;7.690;2023-12-07T04:00:15;26.30;;;10.20;;
18449;SDS011;9354;50.194;7.690;2023-12-07T04:02:43;22.03;;;10.23;;
18449;SDS011;9354;50.194;7.690;2023-12-07T04:05:10;25.33;;;10.97;;
18449;SDS011;9354;50.194;7.690;2023-12-07T04:07:38;29.23;;;12.00;;
18449;SDS011;9354;50.194;7.690;2023-12-07T04:10:07;26.20;;;11.10;;
18449;SDS011;9354;50.194;7.690;2023-12-07T04:12:35;24.47;;;11.20;;
18449;SDS011;9354;50.194;7.690;2023-12-07T04:15:02;28.57;;;11.53;;
18449;SDS011;9354;50.194;7.690;2023-12-07T04:17:30;25.03;;;10.27;;
18449;SDS011;9354;50.194;7.690;2023-12-07T04:19:58;24.43;;;9.40;;
18449;SDS011;9354;50.194;7.690;2023-12-07T04:22:25;21.10;;;8.73;;
18449;SDS011;9354;50.194;7.690;2023-12-07T04:24:53;19.90;;;8.53;;
18449;SDS011;9354;50.194;7.690;2023-12-07T04:27:21;20.87;;;8.53;;
18449;SDS011;9354;50.194;7.690;2023-12-07T04:29:49;19.00;;;8.10;;
18449;SDS011;9354;50.194;7.690;2023-12-07T04:32:16;26.90;;;10.03;;
18449;SDS011;9354;50.194;7.690;2023-12-07T04:34:43;25.23;;;11.10;;
18449;SDS011;9354;50.194;7.690;2023-12-07T04:37:11;25.00;;;11.10;;
18449;SDS011;9354;50.194;7.690;2023-12-07T04:39:38;28.87;;;11.40;;
18449;SDS011;9354;50.194;7.690;2023-12-07T04:42:08;27.20;;;10.97;;
18449;SDS011;9354;50.194;7.690;2023-12-07T04:44:37;27.53;;;11.20;;
18449;SDS011;9354;50.194;7.690;2023-12-07T04:47:04;24.03;;;10.73;;
18449;SDS011;9354;50.194;7.690;2023-12-07T04:49:32;29.13;;;10.73;;
18449;SDS011;9354;50.194;7.690;2023-12-07T04:51:59;26.23;;;10.33;;
18449;SDS011;9354;50.194;7.690;2023-12-07T04:54:26;25.13;;;10.63;;
18449;SDS011;9354;50.194;7.690;2023-12-07T04:56:54;21.03;;;9.73;;
18449;SDS011;9354;50.194;7.690;2023-12-07T04:59:21;21.23;;;9.17;;
18449;SDS011;9354;50.194;7.690;2023-12-07T05:01:50;19.87;;;8.77;;
18449;SDS011;9354;50.194;7.690;2023-12-07T05:04:17;22.73;;;9.10;;
18449;SDS011;9354;50.194;7.690;2023-12-07T05:06:45;21.97;;;8.93;;
18449;SDS011;9354;50.194;7.690;2023-12-07T05:09:12;19.03;;;8.40;;
18449;SDS011;9354;50.194;7.690;2023-12-07T05:11:39;21.17;;;9.43;;
18449;SDS011;9354;50.194;7.690;2023-12-07T05:14:07;19.17;;;8.67;;
18449;SDS011;9354;50.194;7.690;2023-12-07T05:16:34;18.73;;;8.80;;
18449;SDS011;9354;50.194;7.690;2023-12-07T05:19:03;18.67;;;9.60;;
18449;SDS011;9354;50.194;7.690;2023-12-07T05:21:31;21.37;;;9.30;;
18449;SDS011;9354;50.194;7.690;2023-12-07T05:23:58;21.57;;;8.73;;
18449;SDS011;9354;50.194;7.690;2023-12-07T05:26:26;19.40;;;8.50;;
18449;SDS011;9354;50.194;7.690;2023-12-07T05:28:55;19.60;;;9.23;;
18449;SDS011;9354;50.194;7.690;2023-12-07T05:31:22;20.63;;;9.10;;
18449;SDS011;9354;50.194;7.690;2023-12-07T05:33:49;21.97;;;9.03;;
18449;SDS011;9354;50.194;7.690;2023-12-07T05:36:18;17.77;;;8.63;;
18449;SDS011;9354;50.194;7.690;2023-12-07T05:38:46;25.73;;;9.60;;
18449;SDS011;9354;50.194;7.690;2023-12-07T05:41:13;29.33;;;10.27;;
18449;SDS011;9354;50.194;7.690;2023-12-07T05:43:40;19.27;;;8.60;;
18449;SDS011;9354;50.194;7.690;2023-12-07T05:46:08;21.97;;;9.33;;
18449;SDS011;9354;50.194;7.690;2023-12-07T05:48:35;22.83;;;9.80;;
18449;SDS011;9354;50.194;7.690;2023-12-07T05:51:03;26.30;;;9.57;;
18449;SDS011;9354;50.194;7.690;2023-12-07T05:53:33;21.33;;;9.03;;
18449;SDS011;9354;50.194;7.690;2023-12-07T05:56:00;21.07;;;8.90;;
18449;SDS011;9354;50.194;7.690;2023-12-07T05:58:28;22.00;;;10.13;;
18449;SDS011;9354;50.194;7.690;2023-12-07T06:00:55;20.80;;;9.50;;
18449;SDS011;9354;50.194;7.690;2023-12-07T06:03:23;23.63;;;10.20;;
18449;SDS011;9354;50.194;7.690;2023-12-07T06:05:51;26.70;;;11.57;;
18449;SDS011;9354;50.194;7.690;2023-12-07T06:08:19;26.00;;;11.63;;
18449;SDS011;9354;50.194;7.690;2023-12-07T06:10:48;244.50;;;15.23;;
18449;SDS011;9354;50.194;7.690;2023-12-07T06:13:15;190.10;;;12.53;;
18449;SDS011;9354;50.194;7.690;2023-12-07T06:15:43;322.03;;;16.10;;
18449;SDS011;9354;50.194;7.690;2023-12-07T06:18:10;249.73;;;13.73;;
18449;SDS011;9354;50.194;7.690;2023-12-07T06:20:37;95.73;;;10.93;;
18449;SDS011;9354;50.194;7.690;2023-12-07T06:23:07;43.60;;;10.87;;
18449;SDS011;9354;50.194;7.690;2023-12-07T06:25:38;28.43;;;10.97;;
18449;SDS011;9354;50.194;7.690;2023-12-07T06:28:07;30.83;;;11.17;;
18449;SDS011;9354;50.194;7.690;2023-12-07T06:30:34;29.23;;;11.93;;
18449;SDS011;9354;50.194;7.690;2023-12-07T06:33:01;31.60;;;12.53;;
18449;SDS011;9354;50.194;7.690;2023-12-07T06:35:29;30.43;;;11.63;;
18449;SDS011;9354;50.194;7.690;2023-12-07T06:37:57;27.87;;;11.70;;
18449;SDS011;9354;50.194;7.690;2023-12-07T06:40:24;29.30;;;11.63;;
18449;SDS011;9354;50.194;7.690;2023-12-07T06:42:52;25.53;;;11.03;;
18449;SDS011;9354;50.194;7.690;2023-12-07T06:45:20;30.17;;;11.90;;
18449;SDS011;9354;50.194;7.690;2023-12-07T06:47:48;25.10;;;11.30;;
18449;SDS011;9354;50.194;7.690;2023-12-07T06:50:15;132.53;;;13.47;;
18449;SDS011;9354;50.194;7.690;2023-12-07T06:52:42;31.47;;;11.13;;
18449;SDS011;9354;50.194;7.690;2023-12-07T06:55:10;54.70;;;10.43;;
18449;SDS011;9354;50.194;7.690;2023-12-07T06:57:38;162.63;;;13.60;;
18449;SDS011;9354;50.194;7.690;2023-12-07T07:00:05;145.07;;;13.20;;
18449;SDS011;9354;50.194;7.690;2023-12-07T07:02:38;62.73;;;11.60;;
18449;SDS011;9354;50.194;7.690;2023-12-07T07:05:06;110.07;;;13.03;;
18449;SDS011;9354;50.194;7.690;2023-12-07T07:07:37;41.37;;;9.93;;
18449;SDS011;9354;50.194;7.690;2023-12-07T07:10:04;72.73;;;10.97;;
18449;SDS011;9354;50.194;7.690;2023-12-07T07:12:35;121.53;;;13.37;;
18449;SDS011;9354;50.194;7.690;2023-12-07T07:15:02;139.77;;;14.17;;
18449;SDS011;9354;50.194;7.690;2023-12-07T07:17:30;233.27;;;17.47;;
18449;SDS011;9354;50.194;7.690;2023-12-07T07:19:59;83.47;;;11.93;;
18449;SDS011;9354;50.194;7.690;2023-12-07T07:22:27;136.53;;;13.80;;
18449;SDS011;9354;50.194;7.690;2023-12-07T07:24:54;46.13;;;11.43;;
18449;SDS011;9354;50.194;7.690;2023-12-07T07:27:22;50.67;;;12.13;;
18449;SDS011;9354;50.194;7.690;2023-12-07T07:29:49;30.13;;;12.27;;
18449;SDS011;9354;50.194;7.690;2023-12-07T07:32:16;27.63;;;11.87;;
18449;SDS011;9354;50.194;7.690;2023-12-07T07:34:44;25.70;;;10.57;;
18449;SDS011;9354;50.194;7.690;2023-12-07T07:37:12;30.47;;;11.53;;
18449;SDS011;9354;50.194;7.690;2023-12-07T07:39:40;164.30;;;15.47;;
18449;SDS011;9354;50.194;7.690;2023-12-07T07:42:07;90.67;;;12.70;;
18449;SDS011;9354;50.194;7.690;2023-12-07T07:44:34;112.93;;;13.13;;
18449;SDS011;9354;50.194;7.690;2023-12-07T07:47:02;87.80;;;12.73;;
18449;SDS011;9354;50.194;7.690;2023-12-07T07:49:29;25.53;;;11.17;;
18449;SDS011;9354;50.194;7.690;2023-12-07T07:51:57;28.37;;;11.37;;
18449;SDS011;9354;50.194;7.690;2023-12-07T07:54:25;35.07;;;12.57;;
18449;SDS011;9354;50.194;7.690;2023-12-07T07:56:53;126.27;;;15.17;;
18449;SDS011;9354;50.194;7.690;2023-12-07T07:59:20;122.70;;;13.53;;
18449;SDS011;9354;50.194;7.690;2023-12-07T08:01:48;164.30;;;15.10;;
18449;SDS011;9354;50.194;7.690;2023-12-07T08:04:15;290.37;;;17.53;;
18449;SDS011;9354;50.194;7.690;2023-12-07T08:06:44;117.07;;;13.17;;
18449;SDS011;9354;50.194;7.690;2023-12-07T08:09:11;72.20;;;12.70;;
18449;SDS011;9354;50.194;7.690;2023-12-07T08:11:40;42.80;;;12.23;;
18449;SDS011;9354;50.194;7.690;2023-12-07T08:14:08;52.53;;;12.33;;
18449;SDS011;9354;50.194;7.690;2023-12-07T08:16:35;51.90;;;12.40;;
18449;SDS011;9354;50.194;7.690;2023-12-07T08:19:03;48.00;;;11.27;;
18449;SDS011;9354;50.194;7.690;2023-12-07T08:21:30;57.73;;;12.33;;
18449;SDS011;9354;50.194;7.690;2023-12-07T08:23:58;39.60;;;11.70;;
18449;SDS011;9354;50.194;7.690;2023-12-07T08:26:25;66.30;;;11.80;;
18449;SDS011;9354;50.194;7.690;2023-12-07T08:28:54;34.13;;;11.70;;
18449;SDS011;9354;50.194;7.690;2023-12-07T08:31:22;27.53;;;10.63;;
18449;SDS011;9354;50.194;7.690;2023-12-07T08:33:50;31.67;;;12.53;;
18449;SDS011;9354;50.194;7.690;2023-12-07T08:36:17;29.17;;;11.37;;
18449;SDS011;9354;50.194;7.690;2023-12-07T08:38:44;106.30;;;13.87;;
18449;SDS011;9354;50.194;7.690;2023-12-07T08:41:12;176.33;;;15.43;;
18449;SDS011;9354;50.194;7.690;2023-12-07T08:43:39;142.83;;;13.73;;
18449;SDS011;9354;50.194;7.690;2023-12-07T08:46:08;55.67;;;12.60;;
18449;SDS011;9354;50.194;7.690;2023-12-07T08:48:35;62.37;;;13.27;;
18449;SDS011;9354;50.194;7.690;2023-12-07T08:51:04;34.20;;;12.43;;
18449;SDS011;9354;50.194;7.690;2023-12-07T08:53:33;35.33;;;12.43;;
18449;SDS011;9354;50.194;7.690;2023-12-07T08:56:01;33.37;;;13.07;;
18449;SDS011;9354;50.194;7.690;2023-12-07T08:58:29;28.37;;;12.27;;
18449;SDS011;9354;50.194;7.690;2023-12-07T09:00:56;98.33;;;13.03;;
18449;SDS011;9354;50.194;7.690;2023-12-07T09:03:25;34.53;;;12.80;;
18449;SDS011;9354;50.194;7.690;2023-12-07T09:05:57;78.97;;;12.87;;
18449;SDS011;9354;50.194;7.690;2023-12-07T09:08:24;30.60;;;12.63;;
18449;SDS011;9354;50.194;7.690;2023-12-07T09:10:51;34.67;;;13.03;;
18449;SDS011;9354;50.194;7.690;2023-12-07T09:13:19;36.40;;;12.70;;
18449;SDS011;9354;50.194;7.690;2023-12-07T09:15:46;29.53;;;12.97;;
18449;SDS011;9354;50.194;7.690;2023-12-07T09:18:14;31.27;;;12.83;;
18449;SDS011;9354;50.194;7.690;2023-12-07T09:20:42;32.60;;;12.67;;
18449;SDS011;9354;50.194;7.690;2023-12-07T09:23:11;36.77;;;13.40;;
18449;SDS011;9354;50.194;7.690;2023-12-07T09:25:40;35.60;;;13.63;;
18449;SDS011;9354;50.194;7.690;2023-12-07T09:28:08;34.80;;;14.43;;
18449;SDS011;9354;50.194;7.690;2023-12-07T09:30:35;33.63;;;12.90;;
18449;SDS011;9354;50.194;7.690;2023-12-07T09:33:03;39.10;;;13.10;;
18449;SDS011;9354;50.194;7.690;2023-12-07T09:35:30;35.37;;;13.70;;
18449;SDS011;9354;50.194;7.690;2023-12-07T09:38:01;34.53;;;13.77;;
18449;SDS011;9354;50.194;7.690;2023-12-07T09:40:29;36.07;;;13.00;;
18449;SDS011;9354;50.194;7.690;2023-12-07T09:42:57;41.00;;;13.53;;
18449;SDS011;9354;50.194;7.690;2023-12-07T09:45:24;43.57;;;13.13;;
18449;SDS011;9354;50.194;7.690;2023-12-07T09:47:52;44.23;;;12.03;;
18449;SDS011;9354;50.194;7.690;2023-12-07T09:50:20;41.07;;;12.33;;
18449;SDS011;9354;50.194;7.690;2023-12-07T09:52:49;37.03;;;12.07;;
18449;SDS011;9354;50.194;7.690;2023-12-07T09:55:19;66.43;;;13.40;;
18449;SDS011;9354;50.194;7.690;2023-12-07T09:57:48;53.60;;;13.13;;
18449;SDS011;9354;50.194;7.690;2023-12-07T10:00:16;34.70;;;13.17;;
18449;SDS011;9354;50.194;7.690;2023-12-07T10:02:45;35.30;;;11.77;;
18449;SDS011;9354;50.194;7.690;2023-12-07T10:05:13;66.93;;;13.47;;
18449;SDS011;9354;50.194;7.690;2023-12-07T10:07:43;102.70;;;13.77;;
18449;SDS011;9354;50.194;7.690;2023-12-07T10:10:12;128.30;;;14.50;;
18449;SDS011;9354;50.194;7.690;2023-12-07T10:12:45;212.17;;;15.77;;
18449;SDS011;9354;50.194;7.690;2023-12-07T10:15:15;78.13;;;11.77;;
18449;SDS011;9354;50.194;7.690;2023-12-07T10:17:44;260.87;;;15.87;;
18449;SDS011;9354;50.194;7.690;2023-12-07T10:20:14;239.17;;;15.10;;
18449;SDS011;9354;50.194;7.690;2023-12-07T10:22:42;207.63;;;15.80;;
18449;SDS011;9354;50.194;7.690;2023-12-07T10:25:10;112.67;;;13.60;;
18449;SDS011;9354;50.194;7.690;2023-12-07T10:27:39;120.97;;;13.53;;
18449;SDS011;9354;50.194;7.690;2023-12-07T10:30:11;218.00;;;16.23;;
18449;SDS011;9354;50.194;7.690;2023-12-07T10:32:39;160.07;;;14.63;;
18449;SDS011;9354;50.194;7.690;2023-12-07T10:35:07;111.70;;;13.10;;
18449;SDS011;9354;50.194;7.690;2023-12-07T10:37:35;214.27;;;16.27;;
18449;SDS011;9354;50.194;7.690;2023-12-07T10:40:04;33.90;;;10.60;;
18449;SDS011;9354;50.194;7.690;2023-12-07T10:42:33;269.43;;;16.40;;
18449;SDS011;9354;50.194;7.690;2023-12-07T10:45:05;39.50;;;10.83;;
18449;SDS011;9354;50.194;7.690;2023-12-07T10:47:38;87.50;;;12.23;;
18449;SDS011;9354;50.194;7.690;2023-12-07T10:50:06;27.57;;;10.73;;
18449;SDS011;9354;50.194;7.690;2023-12-07T10:52:39;150.93;;;12.80;;
18449;SDS011;9354;50.194;7.690;2023-12-07T10:55:13;195.57;;;15.93;;
18449;SDS011;9354;50.194;7.690;2023-12-07T10:57:43;80.30;;;11.57;;
18449;SDS011;9354;50.194;7.690;2023-12-07T11:00:13;97.30;;;12.10;;
18449;SDS011;9354;50.194;7.690;2023-12-07T11:02:42;92.07;;;11.53;;
18449;SDS011;9354;50.194;7.690;2023-12-07T11:05:11;113.00;;;12.63;;
18449;SDS011;9354;50.194;7.690;2023-12-07T11:07:41;156.03;;;12.30;;
18449;SDS011;9354;50.194;7.690;2023-12-07T11:10:18;189.10;;;12.83;;
18449;SDS011;9354;50.194;7.690;2023-12-07T11:12:54;277.20;;;17.63;;
18449;SDS011;9354;50.194;7.690;2023-12-07T11:15:27;168.37;;;14.53;;
18449;SDS011;9354;50.194;7.690;2023-12-07T11:17:56;254.10;;;18.33;;
18449;SDS011;9354;50.194;7.690;2023-12-07T11:20:31;154.90;;;14.30;;
18449;SDS011;9354;50.194;7.690;2023-12-07T11:23:05;172.60;;;15.07;;
18449;SDS011;9354;50.194;7.690;2023-12-07T11:25:34;166.57;;;14.00;;
18449;SDS011;9354;50.194;7.690;2023-12-07T11:28:01;116.43;;;14.07;;
18449;SDS011;9354;50.194;7.690;2023-12-07T11:30:30;185.63;;;15.70;;
18449;SDS011;9354;50.194;7.690;2023-12-07T11:33:00;181.60;;;17.63;;
18449;SDS011;9354;50.194;7.690;2023-12-07T11:35:29;268.47;;;20.33;;
18449;SDS011;9354;50.194;7.690;2023-12-07T11:38:03;186.53;;;16.30;;
18449;SDS011;9354;50.194;7.690;2023-12-07T11:40:34;176.07;;;15.77;;
18449;SDS011;9354;50.194;7.690;2023-12-07T11:43:02;266.70;;;16.97;;
18449;SDS011;9354;50.194;7.690;2023-12-07T11:45:37;424.13;;;23.57;;
18449;SDS011;9354;50.194;7.690;2023-12-07T11:48:11;423.33;;;22.97;;
18449;SDS011;9354;50.194;7.690;2023-12-07T11:50:57;571.30;;;29.43;;
18449;SDS011;9354;50.194;7.690;2023-12-07T11:53:26;375.93;;;19.87;;
18449;SDS011;9354;50.194;7.690;2023-12-07T11:55:55;445.97;;;24.13;;
18449;SDS011;9354;50.194;7.690;2023-12-07T11:58:24;242.33;;;17.50;;
18449;SDS011;9354;50.194;7.690;2023-12-07T12:00:52;323.63;;;20.17;;
18449;SDS011;9354;50.194;7.690;2023-12-07T12:03:21;239.63;;;18.93;;
18449;SDS011;9354;50.194;7.690;2023-12-07T12:05:49;107.93;;;14.63;;
18449;SDS011;9354;50.194;7.690;2023-12-07T12:08:16;96.17;;;14.90;;
18449;SDS011;9354;50.194;7.690;2023-12-07T12:10:45;71.80;;;13.93;;
18449;SDS011;9354;50.194;7.690;2023-12-07T12:13:12;31.97;;;13.37;;
18449;SDS011;9354;50.194;7.690;2023-12-07T12:15:40;36.30;;;13.60;;
18449;SDS011;9354;50.194;7.690;2023-12-07T12:18:08;29.93;;;11.53;;
18449;SDS011;9354;50.194;7.690;2023-12-07T12:20:37;25.97;;;12.03;;
18449;SDS011;9354;50.194;7.690;2023-12-07T12:23:04;26.87;;;10.90;;
18449;SDS011;9354;50.194;7.690;2023-12-07T12:25:32;28.27;;;12.80;;
18449;SDS011;9354;50.194;7.690;2023-12-07T12:28:01;27.87;;;11.47;;
18449;SDS011;9354;50.194;7.690;2023-12-07T12:30:30;32.13;;;12.97;;
18449;SDS011;9354;50.194;7.690;2023-12-07T12:32:58;25.93;;;10.73;;
18449;SDS011;9354;50.194;7.690;2023-12-07T12:35:26;28.23;;;11.50;;
18449;SDS011;9354;50.194;7.690;2023-12-07T12:37:55;25.07;;;11.40;;
18449;SDS011;9354;50.194;7.690;2023-12-07T12:40:23;28.53;;;11.73;;
18449;SDS011;9354;50.194;7.690;2023-12-07T12:42:54;26.20;;;11.27;;
18449;SDS011;9354;50.194;7.690;2023-12-07T12:45:22;24.57;;;10.93;;
18449;SDS011;9354;50.194;7.690;2023-12-07T12:47:49;27.53;;;11.60;;
18449;SDS011;9354;50.194;7.690;2023-12-07T12:53:08;26.20;;;9.27;;
18449;SDS011;9354;50.194;7.690;2023-12-07T12:55:37;24.57;;;11.60;;
18449;SDS011;9354;50.194;7.690;2023-12-07T12:58:06;24.93;;;11.63;;
18449;SDS011;9354;50.194;7.690;2023-12-07T13:00:34;31.13;;;11.60;;
18449;SDS011;9354;50.194;7.690;2023-12-07T13:03:04;27.20;;;12.13;;
18449;SDS011;9354;50.194;7.690;2023-12-07T13:05:32;24.93;;;11.00;;
18449;SDS011;9354;50.194;7.690;2023-12-07T13:08:00;26.43;;;11.80;;
18449;SDS011;9354;50.194;7.690;2023-12-07T13:10:29;24.37;;;10.53;;
18449;SDS011;9354;50.194;7.690;2023-12-07T13:12:58;25.60;;;11.33;;
18449;SDS011;9354;50.194;7.690;2023-12-07T13:15:25;22.93;;;10.30;;
18449;SDS011;9354;50.194;7.690;2023-12-07T13:17:53;22.77;;;10.70;;
18449;SDS011;9354;50.194;7.690;2023-12-07T13:20:20;26.13;;;10.87;;
18449;SDS011;9354;50.194;7.690;2023-12-07T13:22:48;28.53;;;12.57;;
18449;SDS011;9354;50.194;7.690;2023-12-07T13:25:15;21.17;;;9.67;;
18449;SDS011;9354;50.194;7.690;2023-12-07T13:27:44;22.60;;;10.10;;
18449;SDS011;9354;50.194;7.690;2023-12-07T13:30:11;23.53;;;10.83;;
18449;SDS011;9354;50.194;7.690;2023-12-07T13:32:39;20.63;;;9.57;;
18449;SDS011;9354;50.194;7.690;2023-12-07T13:35:07;24.27;;;10.90;;
18449;SDS011;9354;50.194;7.690;2023-12-07T13:37:34;24.70;;;10.53;;
18449;SDS011;9354;50.194;7.690;2023-12-07T13:40:02;24.67;;;10.20;;
18449;SDS011;9354;50.194;7.690;2023-12-07T13:42:32;23.50;;;11.00;;
18449;SDS011;9354;50.194;7.690;2023-12-07T13:45:01;25.13;;;11.10;;
18449;SDS011;9354;50.194;7.690;2023-12-07T13:47:29;23.57;;;10.70;;
18449;SDS011;9354;50.194;7.690;2023-12-07T13:49:57;27.60;;;10.20;;
18449;SDS011;9354;50.194;7.690;2023-12-07T13:52:25;21.50;;;9.90;;
18449;SDS011;9354;50.194;7.690;2023-12-07T13:54:54;22.60;;;9.90;;
18449;SDS011;9354;50.194;7.690;2023-12-07T13:57:22;23.67;;;9.83;;
18449;SDS011;9354;50.194;7.690;2023-12-07T13:59:50;23.93;;;8.67;;
18449;SDS011;9354;50.194;7.690;2023-12-07T14:02:19;26.20;;;8.97;;
18449;SDS011;9354;50.194;7.690;2023-12-07T14:04:47;20.97;;;9.03;;
18449;SDS011;9354;50.194;7.690;2023-12-07T14:07:17;21.87;;;9.23;;
18449;SDS011;9354;50.194;7.690;2023-12-07T14:09:46;23.00;;;9.20;;
18449;SDS011;9354;50.194;7.690;2023-12-07T14:12:14;21.17;;;9.33;;
18449;SDS011;9354;50.194;7.690;2023-12-07T14:14:42;24.67;;;9.30;;
18449;SDS011;9354;50.194;7.690;2023-12-07T14:17:10;24.83;;;9.37;;
18449;SDS011;9354;50.194;7.690;2023-12-07T14:19:40;23.33;;;9.77;;
18449;SDS011;9354;50.194;7.690;2023-12-07T14:22:08;23.57;;;9.33;;
18449;SDS011;9354;50.194;7.690;2023-12-07T14:24:35;26.00;;;9.47;;
18449;SDS011;9354;50.194;7.690;2023-12-07T14:27:04;24.43;;;9.23;;
18449;SDS011;9354;50.194;7.690;2023-12-07T14:29:32;24.50;;;8.03;;
18449;SDS011;9354;50.194;7.690;2023-12-07T14:32:00;17.97;;;8.53;;
18449;SDS011;9354;50.194;7.690;2023-12-07T14:34:28;21.43;;;8.13;;
18449;SDS011;9354;50.194;7.690;2023-12-07T14:36:57;21.63;;;8.47;;
18449;SDS011;9354;50.194;7.690;2023-12-07T14:39:25;22.17;;;9.67;;
18449;SDS011;9354;50.194;7.690;2023-12-07T14:41:52;18.47;;;7.37;;
18449;SDS011;9354;50.194;7.690;2023-12-07T14:44:21;19.93;;;8.30;;
18449;SDS011;9354;50.194;7.690;2023-12-07T14:46:49;24.23;;;8.73;;